Main page
METAR-TAF:

METAR-TAF

Airports :

Kavala International Airport

Kavala, Greece

latitude: 40-59N, longitude: 024-36E, elevation: 5 m

Current weather observation

The report was made 2 hours and 56 minutes ago, at 20:20 UTC
Wind 5 kt from the North/Northeast
Temperature 26°C
Humidity 70%
Pressure 1011 hPa
Visibility 10 km or more
Few clouds at a height of 2000 ft

METAR: LGKV 172020Z 03005KT 9999 FEW020 26/20 Q1011

Time: 02:16 (23:16 UTC)

Forecast

The report was made 3 hours and 16 minutes ago, at 20:00 UTC
Forecast valid from 17 at 21 UTC to 18 at 06 UTC
Wind 10 kt from the North
Visibility 10 km or more
Few clouds at a height of 2000 ft
Temporary
from 17 at 21 UTC to 17 at 24 UTC
Few clouds at a height of 2000 ft
Scattered clouds at a height of 8000 ft

TAF: LGKV 172000Z 1721/1806 01010KT 9999 FEW020 TEMPO 1721/1724 FEW020 SCT080

Weather observations and forecasts of more than 4000 airports (METAR and TAF reports).

The available stations are represented by yellow and red dots on the map.

Hover mouse over dot to see the name of the station.

Then click to see weather observations and forecasts.

To change the map : click on the green buttons with a black cross to zoom in, on the green button with a dash to zoom out, or on the green arrows for adjacent maps.


METAR-TAF: